createdAt,value
2019-05-29T00:00:05.820Z,991.26
2019-05-29T00:01:09.008Z,991.28
2019-05-29T00:02:05.957Z,991.25
2019-05-29T00:03:06.297Z,991.25
2019-05-29T00:04:06.177Z,991.29
2019-05-29T00:05:05.985Z,991.30
2019-05-29T00:06:06.214Z,991.32
2019-05-29T00:07:06.100Z,991.35
2019-05-29T00:08:06.366Z,991.35
2019-05-29T00:09:06.020Z,991.34
2019-05-29T00:10:06.173Z,991.34
2019-05-29T00:11:06.073Z,991.38
2019-05-29T00:12:08.447Z,991.35
2019-05-29T00:13:06.281Z,991.38
2019-05-29T00:14:21.728Z,991.39
2019-05-29T00:15:06.317Z,991.41
2019-05-29T00:16:06.307Z,991.42
2019-05-29T00:17:06.432Z,991.43
2019-05-29T00:18:06.496Z,991.46
2019-05-29T00:19:06.975Z,991.39
2019-05-29T00:20:06.679Z,991.50
2019-05-29T00:21:06.775Z,991.53
2019-05-29T00:22:06.865Z,991.51
2019-05-29T00:23:06.962Z,991.54
2019-05-29T00:24:08.232Z,991.50
2019-05-29T00:25:08.426Z,991.55
2019-05-29T00:26:08.260Z,991.57
2019-05-29T00:27:07.445Z,991.54
2019-05-29T00:28:08.428Z,991.57
2019-05-29T00:29:07.571Z,991.59
2019-05-29T00:30:08.562Z,991.61
2019-05-29T00:31:07.810Z,991.60
2019-05-29T00:32:08.823Z,991.65
2019-05-29T00:33:08.008Z,991.68
2019-05-29T00:34:08.930Z,991.70
2019-05-29T00:35:08.330Z,991.69
2019-05-29T00:36:08.262Z,991.65
2019-05-29T00:37:08.571Z,991.72
2019-05-29T00:38:08.513Z,991.71
2019-05-29T00:39:08.667Z,991.70
2019-05-29T00:40:09.029Z,991.72
2019-05-29T00:41:08.837Z,991.78
2019-05-29T00:42:08.965Z,991.76
2019-05-29T00:43:09.144Z,991.74
2019-05-29T00:44:09.142Z,991.79
2019-05-29T00:45:09.500Z,991.80
2019-05-29T00:46:09.358Z,991.82
2019-05-29T00:47:09.441Z,991.83
2019-05-29T00:48:09.658Z,991.85
2019-05-29T00:49:09.724Z,991.86
2019-05-29T00:50:09.915Z,991.85
2019-05-29T00:51:09.575Z,991.88
2019-05-29T00:52:10.019Z,991.86
2019-05-29T00:53:10.146Z,991.91
2019-05-29T00:54:10.310Z,991.92
2019-05-29T00:55:10.482Z,991.94
2019-05-29T00:56:10.488Z,991.96
2019-05-29T00:57:10.886Z,991.96
2019-05-29T00:58:10.737Z,991.95
2019-05-29T00:59:11.078Z,991.96
2019-05-29T01:00:11.201Z,991.98
2019-05-29T01:01:11.411Z,991.99
2019-05-29T01:02:11.773Z,992.00
2019-05-29T01:03:11.611Z,992.03
2019-05-29T01:04:11.520Z,992.04
2019-05-29T01:05:11.902Z,992.08
2019-05-29T01:06:11.960Z,992.14
2019-05-29T01:07:12.183Z,992.11
2019-05-29T01:08:12.470Z,992.13
2019-05-29T01:09:12.307Z,992.13
2019-05-29T01:10:13.019Z,992.19
2019-05-29T01:11:12.441Z,992.18
2019-05-29T01:12:12.768Z,992.18
2019-05-29T01:13:11.645Z,992.22
2019-05-29T01:14:11.744Z,992.23
2019-05-29T01:15:11.834Z,992.23
2019-05-29T01:16:11.926Z,992.27
2019-05-29T01:17:12.253Z,992.23
2019-05-29T01:18:12.128Z,992.26
2019-05-29T01:19:12.221Z,992.29
2019-05-29T01:20:12.312Z,992.30
2019-05-29T01:21:12.407Z,992.32
2019-05-29T01:22:12.489Z,992.28
2019-05-29T01:23:12.579Z,992.35
2019-05-29T01:24:12.676Z,992.35
2019-05-29T01:25:12.771Z,992.37
2019-05-29T01:26:12.864Z,992.36
2019-05-29T01:27:12.978Z,992.37
2019-05-29T01:28:13.062Z,992.35
2019-05-29T01:29:13.157Z,992.38
2019-05-29T01:30:13.276Z,992.44
2019-05-29T01:31:13.634Z,992.44
2019-05-29T01:32:13.527Z,992.49
2019-05-29T01:33:16.851Z,992.47
2019-05-29T01:34:13.629Z,992.44
2019-05-29T01:35:13.812Z,992.47
2019-05-29T01:36:13.879Z,992.47
2019-05-29T01:37:14.015Z,992.50
2019-05-29T01:38:15.144Z,992.53
2019-05-29T01:39:15.097Z,992.56
2019-05-29T01:40:21.032Z,992.56
2019-05-29T01:41:15.087Z,992.54
2019-05-29T01:42:15.189Z,992.56
2019-05-29T01:43:15.350Z,992.61
2019-05-29T01:44:15.314Z,992.57
2019-05-29T01:45:15.445Z,992.59
2019-05-29T01:46:15.216Z,992.60
2019-05-29T01:47:15.362Z,992.62
2019-05-29T01:48:15.383Z,992.61
2019-05-29T01:49:15.997Z,992.65
2019-05-29T01:50:15.570Z,992.64
2019-05-29T01:51:15.458Z,992.62
2019-05-29T01:52:15.568Z,992.64
2019-05-29T01:53:15.580Z,992.66
2019-05-29T01:54:15.525Z,992.65
2019-05-29T01:55:15.789Z,992.67
2019-05-29T01:56:15.666Z,992.68
2019-05-29T01:57:15.813Z,992.68
2019-05-29T01:58:15.875Z,992.69
2019-05-29T01:59:15.964Z,992.69
2019-05-29T02:00:16.060Z,992.70
2019-05-29T02:01:16.155Z,992.70
2019-05-29T02:02:16.242Z,992.74
2019-05-29T02:03:16.340Z,992.79
2019-05-29T02:04:17.721Z,992.76
2019-05-29T02:05:17.738Z,992.76
2019-05-29T02:06:17.845Z,992.75
2019-05-29T02:07:17.833Z,992.80
2019-05-29T02:08:17.974Z,992.79
2019-05-29T02:09:17.928Z,992.84
2019-05-29T02:10:18.069Z,992.86
2019-05-29T02:11:17.155Z,992.86
2019-05-29T02:12:19.318Z,992.89
2019-05-29T02:13:17.326Z,992.95
2019-05-29T02:14:18.404Z,992.94
2019-05-29T02:15:27.970Z,992.96
2019-05-29T02:16:18.504Z,992.95
2019-05-29T02:17:17.822Z,992.98
2019-05-29T02:18:18.806Z,992.98
2019-05-29T02:19:17.845Z,993.01
2019-05-29T02:20:18.968Z,993.00
2019-05-29T02:21:18.092Z,993.01
2019-05-29T02:22:18.887Z,993.02
2019-05-29T02:23:18.209Z,993.03
2019-05-29T02:24:19.006Z,993.03
2019-05-29T02:25:19.646Z,993.04
2019-05-29T02:26:18.488Z,993.03
2019-05-29T02:27:19.464Z,993.06
2019-05-29T02:28:18.686Z,993.06
2019-05-29T02:29:18.790Z,993.05
2019-05-29T02:30:21.136Z,993.06
2019-05-29T02:31:19.641Z,993.05
2019-05-29T02:32:19.596Z,993.06
2019-05-29T02:33:19.638Z,993.12
2019-05-29T02:34:19.998Z,993.10
2019-05-29T02:35:20.283Z,993.08
2019-05-29T02:36:20.364Z,993.11
2019-05-29T02:37:20.159Z,993.07
2019-05-29T02:38:20.558Z,993.10
2019-05-29T02:39:21.107Z,993.10
2019-05-29T02:40:21.353Z,993.12
2019-05-29T02:41:21.683Z,993.12
2019-05-29T02:42:20.952Z,993.14
2019-05-29T02:43:21.311Z,993.18
2019-05-29T02:44:21.192Z,993.18
2019-05-29T02:45:21.617Z,993.19
2019-05-29T02:46:21.734Z,993.19
2019-05-29T02:47:21.662Z,993.21
2019-05-29T02:48:21.029Z,993.25
2019-05-29T02:49:21.566Z,993.22
2019-05-29T02:50:22.163Z,993.29
2019-05-29T02:51:22.069Z,993.26
2019-05-29T02:52:21.921Z,993.30
2019-05-29T02:53:22.234Z,993.29
2019-05-29T02:54:22.526Z,993.32
2019-05-29T02:55:22.497Z,993.34
2019-05-29T02:56:22.754Z,993.33
2019-05-29T02:57:22.823Z,993.34
2019-05-29T02:58:23.246Z,993.36
2019-05-29T02:59:23.246Z,993.37
2019-05-29T03:00:23.271Z,993.36
2019-05-29T03:01:23.588Z,993.39
2019-05-29T03:02:23.348Z,993.38
2019-05-29T03:03:23.523Z,993.38
2019-05-29T03:04:23.844Z,993.45
2019-05-29T03:05:23.717Z,993.42
2019-05-29T03:06:22.756Z,993.45
2019-05-29T03:07:22.457Z,993.46
2019-05-29T03:08:22.451Z,993.45
2019-05-29T03:09:22.911Z,993.51
2019-05-29T03:10:22.643Z,993.47
2019-05-29T03:11:23.204Z,993.47
2019-05-29T03:12:22.940Z,993.49
2019-05-29T03:13:23.268Z,993.52
2019-05-29T03:14:23.020Z,993.54
2019-05-29T03:15:23.567Z,993.52
2019-05-29T03:16:23.839Z,993.56
2019-05-29T03:17:23.664Z,993.61
2019-05-29T03:18:23.963Z,993.61
2019-05-29T03:19:23.912Z,993.65
2019-05-29T03:20:23.923Z,993.68
2019-05-29T03:21:24.074Z,993.73
2019-05-29T03:22:24.133Z,993.74
2019-05-29T03:23:24.187Z,993.74
2019-05-29T03:24:24.466Z,993.80
2019-05-29T03:25:24.342Z,993.78
2019-05-29T03:26:26.537Z,993.78
2019-05-29T03:27:25.602Z,993.85
2019-05-29T03:28:25.518Z,993.86
2019-05-29T03:29:25.779Z,993.86
2019-05-29T03:30:26.992Z,993.89
2019-05-29T03:31:27.059Z,993.93
2019-05-29T03:32:27.173Z,993.95
2019-05-29T03:33:27.131Z,993.97
2019-05-29T03:34:27.391Z,993.99
2019-05-29T03:35:27.482Z,993.99
2019-05-29T03:36:27.667Z,994.02
2019-05-29T03:37:26.255Z,994.03
2019-05-29T03:38:26.107Z,994.09
2019-05-29T03:39:26.393Z,994.05
2019-05-29T03:40:26.523Z,994.05
2019-05-29T03:41:26.274Z,994.03
2019-05-29T03:42:26.391Z,994.06
2019-05-29T03:43:26.162Z,994.11
2019-05-29T03:44:26.309Z,994.10
2019-05-29T03:45:26.764Z,994.11
2019-05-29T03:46:34.420Z,994.06
2019-05-29T03:47:26.903Z,994.12
2019-05-29T03:48:27.720Z,994.08
2019-05-29T03:49:26.851Z,994.15
2019-05-29T03:50:27.277Z,994.15
2019-05-29T03:51:27.354Z,994.17
2019-05-29T03:52:28.294Z,994.15
2019-05-29T03:53:27.044Z,994.20
2019-05-29T03:54:28.662Z,994.22
2019-05-29T03:55:27.308Z,994.17
2019-05-29T03:56:28.163Z,994.20
2019-05-29T03:57:27.687Z,994.18
2019-05-29T03:58:28.736Z,994.21
2019-05-29T03:59:28.470Z,994.20
2019-05-29T04:00:31.906Z,994.19
2019-05-29T04:01:28.942Z,994.23
2019-05-29T04:02:28.682Z,994.22
2019-05-29T04:03:28.932Z,994.28
2019-05-29T04:04:29.031Z,994.29
2019-05-29T04:05:29.112Z,994.28
2019-05-29T04:06:29.088Z,994.33
2019-05-29T04:07:29.299Z,994.32
2019-05-29T04:08:29.477Z,994.33
2019-05-29T04:09:29.166Z,994.32
2019-05-29T04:10:29.429Z,994.36
2019-05-29T04:11:29.288Z,994.34
2019-05-29T04:12:29.530Z,994.34
2019-05-29T04:13:29.598Z,994.43
2019-05-29T04:14:29.741Z,994.39
2019-05-29T04:15:29.316Z,994.41
2019-05-29T04:16:29.573Z,994.45
2019-05-29T04:17:29.769Z,994.45
2019-05-29T04:18:29.736Z,994.46
2019-05-29T04:19:30.123Z,994.46
2019-05-29T04:20:29.585Z,994.46
2019-05-29T04:21:29.655Z,994.48
2019-05-29T04:22:30.340Z,994.52
2019-05-29T04:23:29.991Z,994.55
2019-05-29T04:24:29.823Z,994.58
2019-05-29T04:25:33.265Z,994.55
2019-05-29T04:26:29.737Z,994.57
2019-05-29T04:27:30.059Z,994.63
2019-05-29T04:28:30.321Z,994.62
2019-05-29T04:29:30.127Z,994.63
2019-05-29T04:30:30.102Z,994.65
2019-05-29T04:31:30.118Z,994.71
2019-05-29T04:32:30.204Z,994.71
2019-05-29T04:33:30.685Z,994.72
2019-05-29T04:34:31.696Z,994.74
2019-05-29T04:35:30.482Z,994.77
2019-05-29T04:36:31.164Z,994.79
2019-05-29T04:37:32.481Z,994.81
2019-05-29T04:38:31.556Z,994.79
2019-05-29T04:39:32.654Z,994.85
2019-05-29T04:40:32.533Z,994.86
2019-05-29T04:41:32.676Z,994.89
2019-05-29T04:42:33.498Z,994.91
2019-05-29T04:43:33.214Z,994.91
2019-05-29T04:44:33.113Z,994.94
2019-05-29T04:45:33.067Z,994.93
2019-05-29T04:46:31.755Z,994.95
2019-05-29T04:47:33.144Z,994.96
2019-05-29T04:48:33.505Z,994.99
2019-05-29T04:49:33.646Z,995.02
2019-05-29T04:50:33.381Z,995.03
2019-05-29T04:51:33.089Z,995.02
2019-05-29T04:52:33.563Z,995.09
2019-05-29T04:53:33.518Z,995.07
2019-05-29T04:54:33.347Z,995.09
2019-05-29T04:55:32.743Z,995.12
2019-05-29T04:56:32.782Z,995.09
2019-05-29T04:57:32.875Z,995.13
2019-05-29T04:58:32.872Z,995.13
2019-05-29T04:59:33.063Z,995.16
2019-05-29T05:00:33.143Z,995.20
2019-05-29T05:01:33.096Z,995.19
2019-05-29T05:02:33.114Z,995.21
2019-05-29T05:03:33.280Z,995.23
2019-05-29T05:04:33.282Z,995.25
2019-05-29T05:05:33.357Z,995.25
2019-05-29T05:06:33.416Z,995.25
2019-05-29T05:07:33.543Z,995.26
2019-05-29T05:08:33.608Z,995.30
2019-05-29T05:09:33.701Z,995.27
2019-05-29T05:10:33.795Z,995.30
2019-05-29T05:11:33.888Z,995.37
2019-05-29T05:12:33.983Z,995.36
2019-05-29T05:13:34.079Z,995.37
2019-05-29T05:14:34.171Z,995.39
2019-05-29T05:15:34.267Z,995.38
2019-05-29T05:16:34.358Z,995.41
2019-05-29T05:17:34.452Z,995.40
2019-05-29T05:18:35.544Z,995.40
2019-05-29T05:19:35.873Z,995.47
2019-05-29T05:20:36.008Z,995.43
2019-05-29T05:21:35.954Z,995.48
2019-05-29T05:22:36.037Z,995.44
2019-05-29T05:23:36.073Z,995.47
2019-05-29T05:24:36.299Z,995.46
2019-05-29T05:25:36.348Z,995.49
2019-05-29T05:26:36.285Z,995.49
2019-05-29T05:27:36.448Z,995.52
2019-05-29T05:28:36.463Z,995.49
2019-05-29T05:29:36.286Z,995.56
2019-05-29T05:30:36.476Z,995.56
2019-05-29T05:31:36.504Z,995.56
2019-05-29T05:32:36.870Z,995.57
2019-05-29T05:33:36.750Z,995.56
2019-05-29T05:34:36.893Z,995.57
2019-05-29T05:35:36.825Z,995.59
2019-05-29T05:36:36.761Z,995.54
2019-05-29T05:37:36.924Z,995.59
2019-05-29T05:38:36.827Z,995.57
2019-05-29T05:39:37.274Z,995.59
2019-05-29T05:40:39.405Z,995.61
2019-05-29T05:41:36.907Z,995.61
2019-05-29T05:42:37.183Z,995.62
2019-05-29T05:43:36.988Z,995.68
2019-05-29T05:44:37.101Z,995.68
2019-05-29T05:45:37.158Z,995.70
2019-05-29T05:46:37.215Z,995.69
2019-05-29T05:47:49.981Z,995.75
2019-05-29T05:48:37.385Z,995.78
2019-05-29T05:49:37.479Z,995.84
2019-05-29T05:50:37.570Z,995.85
2019-05-29T05:51:41.124Z,995.83
2019-05-29T05:52:37.760Z,995.93
2019-05-29T05:53:37.852Z,995.86
2019-05-29T05:54:37.948Z,995.92
2019-05-29T05:55:38.042Z,995.89
2019-05-29T05:56:38.135Z,995.94
2019-05-29T05:57:38.226Z,995.95
2019-05-29T05:58:38.324Z,995.96
2019-05-29T05:59:38.422Z,995.98
2019-05-29T06:00:39.775Z,996.02
2019-05-29T06:01:39.934Z,996.03
2019-05-29T06:02:40.018Z,996.04
2019-05-29T06:03:40.461Z,996.08
2019-05-29T06:04:40.028Z,996.09
2019-05-29T06:05:40.107Z,996.11
2019-05-29T06:06:40.203Z,996.14
2019-05-29T06:07:40.430Z,996.14
2019-05-29T06:08:40.228Z,996.16
2019-05-29T06:09:40.418Z,996.15
2019-05-29T06:10:40.285Z,996.16
2019-05-29T06:11:40.391Z,996.18
2019-05-29T06:12:40.593Z,996.18
2019-05-29T06:13:40.496Z,996.18
2019-05-29T06:14:40.648Z,996.23
2019-05-29T06:15:40.653Z,996.24
2019-05-29T06:16:40.709Z,996.26
2019-05-29T06:17:40.751Z,996.30
2019-05-29T06:18:40.654Z,996.37
2019-05-29T06:19:41.133Z,996.32
2019-05-29T06:20:40.998Z,996.32
2019-05-29T06:21:40.921Z,996.35
2019-05-29T06:22:41.162Z,996.27
2019-05-29T06:23:41.144Z,996.25
2019-05-29T06:24:41.046Z,996.29
2019-05-29T06:25:42.476Z,996.30
2019-05-29T06:26:41.122Z,996.29
2019-05-29T06:27:41.418Z,996.30
2019-05-29T06:28:41.310Z,996.35
2019-05-29T06:29:41.344Z,996.38
2019-05-29T06:30:43.317Z,996.49
2019-05-29T06:31:41.505Z,996.43
2019-05-29T06:32:41.659Z,996.48
2019-05-29T06:33:41.661Z,996.50
2019-05-29T06:34:41.757Z,996.47
2019-05-29T06:35:41.854Z,996.51
2019-05-29T06:36:41.956Z,996.54
2019-05-29T06:37:42.045Z,996.55
2019-05-29T06:38:42.270Z,996.53
2019-05-29T06:39:42.235Z,996.58
2019-05-29T06:40:42.327Z,996.53
2019-05-29T06:41:42.426Z,996.58
2019-05-29T06:42:42.538Z,996.57
2019-05-29T06:43:44.101Z,996.54
2019-05-29T06:44:44.868Z,996.57
2019-05-29T06:45:44.031Z,996.59
2019-05-29T06:46:45.150Z,996.56
2019-05-29T06:47:44.477Z,996.60
2019-05-29T06:48:57.447Z,996.54
2019-05-29T06:49:44.270Z,996.60
2019-05-29T06:50:43.500Z,996.60
2019-05-29T06:51:43.512Z,996.62
2019-05-29T06:52:43.621Z,996.66
2019-05-29T06:53:43.912Z,996.67
2019-05-29T06:54:44.126Z,996.68
2019-05-29T06:55:44.024Z,996.70
2019-05-29T06:56:43.893Z,996.65
2019-05-29T06:57:44.509Z,996.70
2019-05-29T06:58:44.415Z,996.75
2019-05-29T06:59:44.718Z,996.70
2019-05-29T07:00:44.854Z,996.69
2019-05-29T07:01:44.354Z,996.77
2019-05-29T07:02:44.886Z,996.71
2019-05-29T07:03:44.543Z,996.74
2019-05-29T07:04:44.733Z,996.73
2019-05-29T07:05:50.668Z,996.74
2019-05-29T07:06:44.902Z,996.78
2019-05-29T07:07:44.927Z,996.76
2019-05-29T07:08:48.263Z,996.81
2019-05-29T07:09:45.194Z,996.80
2019-05-29T07:10:45.222Z,996.84
2019-05-29T07:11:45.538Z,996.85
2019-05-29T07:12:46.442Z,996.89
2019-05-29T07:13:48.444Z,996.94
2019-05-29T07:14:46.572Z,996.95
2019-05-29T07:15:46.189Z,996.98
2019-05-29T07:16:55.663Z,996.92
2019-05-29T07:17:46.694Z,996.93
2019-05-29T07:19:22.960Z,996.94
2019-05-29T07:19:57.970Z,996.94
2019-05-29T07:20:46.984Z,996.94
2019-05-29T07:21:47.192Z,996.94
2019-05-29T07:22:47.121Z,996.99
2019-05-29T07:23:48.422Z,996.98
2019-05-29T07:24:47.031Z,996.94
2019-05-29T07:25:47.431Z,996.94
2019-05-29T07:26:47.252Z,997.03
2019-05-29T07:27:47.061Z,997.01
2019-05-29T07:29:02.967Z,996.99
2019-05-29T07:29:47.400Z,997.00
2019-05-29T07:30:53.722Z,996.99
2019-05-29T07:31:47.319Z,997.01
2019-05-29T07:32:56.769Z,997.03
2019-05-29T07:33:47.486Z,997.05
2019-05-29T07:35:02.342Z,997.10
2019-05-29T07:35:47.833Z,997.06
2019-05-29T07:36:48.182Z,997.10
2019-05-29T07:37:48.128Z,997.11
2019-05-29T07:39:01.955Z,997.08
2019-05-29T07:39:48.000Z,997.16
2019-05-29T07:40:49.869Z,997.20
2019-05-29T07:41:48.180Z,997.18
2019-05-29T07:42:55.066Z,997.19
2019-05-29T07:43:48.386Z,997.18
2019-05-29T07:44:48.467Z,997.16
2019-05-29T07:45:48.560Z,997.09
2019-05-29T07:46:48.928Z,997.19
2019-05-29T07:47:48.749Z,997.18
2019-05-29T07:48:50.379Z,997.21
2019-05-29T07:49:50.279Z,997.20
2019-05-29T07:50:49.037Z,997.20
2019-05-29T07:51:49.139Z,997.25
2019-05-29T07:52:49.402Z,997.21
2019-05-29T07:53:49.326Z,997.16
2019-05-29T07:54:50.044Z,997.20
2019-05-29T07:55:49.516Z,997.24
2019-05-29T07:56:49.613Z,997.22
2019-05-29T07:57:49.710Z,997.26
2019-05-29T07:59:01.545Z,997.19
2019-05-29T07:59:49.909Z,997.19
2019-05-29T08:01:08.961Z,997.25
2019-05-29T08:01:50.090Z,997.31
2019-05-29T08:02:50.184Z,997.30
2019-05-29T08:03:50.314Z,997.30
2019-05-29T08:04:50.377Z,997.31
2019-05-29T08:05:52.643Z,997.27
2019-05-29T08:06:54.336Z,997.32
2019-05-29T08:07:50.679Z,997.38
2019-05-29T08:08:50.867Z,997.38
2019-05-29T08:09:50.875Z,997.41
2019-05-29T08:10:50.969Z,997.41
2019-05-29T08:11:51.067Z,997.44
2019-05-29T08:12:55.564Z,997.38
2019-05-29T08:13:51.259Z,997.42
2019-05-29T08:14:51.376Z,997.38
2019-05-29T08:16:01.861Z,997.43
2019-05-29T08:16:51.547Z,997.42
2019-05-29T08:17:51.642Z,997.40
2019-05-29T08:18:52.942Z,997.38
2019-05-29T08:20:03.248Z,997.40
2019-05-29T08:20:51.930Z,997.53
2019-05-29T08:21:52.026Z,997.51
2019-05-29T08:22:52.127Z,997.43
2019-05-29T08:23:52.218Z,997.51
2019-05-29T08:24:52.314Z,997.49
2019-05-29T08:25:52.411Z,997.49
2019-05-29T08:26:52.517Z,997.45
2019-05-29T08:27:52.612Z,997.48
2019-05-29T08:28:52.711Z,997.50
2019-05-29T08:29:52.808Z,997.58
2019-05-29T08:30:56.409Z,997.63
2019-05-29T08:31:53.005Z,997.56
2019-05-29T08:32:53.117Z,997.57
2019-05-29T08:33:53.193Z,997.55
2019-05-29T08:34:53.279Z,997.56
2019-05-29T08:35:59.886Z,997.60
2019-05-29T08:37:06.032Z,997.58
2019-05-29T08:37:53.564Z,997.55
2019-05-29T08:38:53.664Z,997.62
2019-05-29T08:39:53.761Z,997.51
2019-05-29T08:40:53.861Z,997.52
2019-05-29T08:42:19.579Z,997.51
2019-05-29T08:42:54.087Z,997.61
2019-05-29T08:44:01.372Z,997.62
2019-05-29T08:44:54.221Z,997.68
2019-05-29T08:45:54.336Z,997.66
2019-05-29T08:47:09.042Z,997.63
2019-05-29T08:47:54.513Z,997.65
2019-05-29T08:48:54.628Z,997.60
2019-05-29T08:49:54.788Z,997.64
2019-05-29T08:50:54.803Z,997.56
2019-05-29T08:52:10.609Z,997.61
2019-05-29T08:52:54.999Z,997.72
2019-05-29T08:53:55.091Z,997.72
2019-05-29T08:54:55.187Z,997.71
2019-05-29T08:55:55.283Z,997.68
2019-05-29T08:56:55.384Z,997.74
2019-05-29T08:57:55.478Z,997.71
2019-05-29T08:58:55.579Z,997.74
2019-05-29T08:59:55.682Z,997.74
2019-05-29T09:00:55.780Z,997.71
2019-05-29T09:01:55.918Z,997.73
2019-05-29T09:02:55.976Z,997.76
2019-05-29T09:03:56.081Z,997.71
2019-05-29T09:04:56.169Z,997.75
2019-05-29T09:06:08.516Z,997.83
2019-05-29T09:06:56.361Z,997.82
2019-05-29T09:07:56.459Z,997.82
2019-05-29T09:08:56.561Z,997.85
2019-05-29T09:09:56.657Z,997.82
2019-05-29T09:10:56.754Z,997.80
2019-05-29T09:11:56.852Z,997.81
2019-05-29T09:13:04.914Z,997.74
2019-05-29T09:13:57.060Z,997.74
2019-05-29T09:14:57.154Z,997.79
2019-05-29T09:15:57.252Z,997.84
2019-05-29T09:16:57.349Z,997.85
2019-05-29T09:17:57.446Z,997.84
2019-05-29T09:18:57.541Z,997.84
2019-05-29T09:19:57.640Z,997.84
2019-05-29T09:21:03.439Z,997.79
2019-05-29T09:21:57.832Z,997.78
2019-05-29T09:22:57.927Z,997.81
2019-05-29T09:23:59.042Z,997.90
2019-05-29T09:24:58.120Z,997.95
2019-05-29T09:26:13.615Z,997.88
2019-05-29T09:26:58.315Z,997.87
2019-05-29T09:27:58.411Z,997.81
2019-05-29T09:28:58.507Z,997.93
2019-05-29T09:29:58.604Z,997.93
2019-05-29T09:30:58.705Z,997.96
2019-05-29T09:31:58.801Z,997.94
2019-05-29T09:32:58.896Z,997.95
2019-05-29T09:33:58.998Z,997.95
2019-05-29T09:34:59.094Z,997.92
2019-05-29T09:35:59.189Z,997.96
2019-05-29T09:36:59.321Z,997.89
2019-05-29T09:37:59.394Z,997.93
2019-05-29T09:38:59.496Z,997.93
2019-05-29T09:39:59.606Z,997.95
2019-05-29T09:40:59.681Z,997.96
2019-05-29T09:41:59.778Z,998.04
2019-05-29T09:42:59.878Z,998.02
2019-05-29T09:44:00.419Z,998.02
2019-05-29T09:45:00.074Z,998.00
2019-05-29T09:46:02.292Z,998.03
2019-05-29T09:47:00.271Z,998.03
2019-05-29T09:48:00.372Z,998.09
2019-05-29T09:49:01.568Z,998.12
2019-05-29T09:50:00.575Z,998.11
2019-05-29T09:51:19.961Z,998.07
2019-05-29T09:52:01.010Z,998.06
2019-05-29T09:53:02.699Z,998.07
2019-05-29T09:54:01.499Z,998.07
2019-05-29T09:55:02.484Z,998.11
2019-05-29T09:56:02.912Z,998.17
2019-05-29T09:57:01.259Z,998.17
2019-05-29T09:58:02.665Z,998.12
2019-05-29T09:59:01.813Z,998.11
2019-05-29T10:00:02.155Z,998.14
2019-05-29T10:01:18.334Z,998.17
2019-05-29T10:02:05.963Z,998.07
2019-05-29T10:03:01.909Z,998.17
2019-05-29T10:04:05.776Z,998.19
2019-05-29T10:05:02.918Z,998.10
2019-05-29T10:06:02.188Z,998.14
2019-05-29T10:07:04.144Z,998.11
2019-05-29T10:08:04.066Z,998.09
2019-05-29T10:09:03.644Z,998.09
2019-05-29T10:10:03.526Z,998.12
2019-05-29T10:11:08.422Z,998.15
2019-05-29T10:12:06.371Z,998.22
2019-05-29T10:13:04.206Z,998.22
2019-05-29T10:14:04.959Z,998.15
2019-05-29T10:15:04.329Z,998.26
2019-05-29T10:16:04.606Z,998.19
2019-05-29T10:17:09.164Z,998.22
2019-05-29T10:18:07.389Z,998.21
2019-05-29T10:19:04.861Z,998.20
2019-05-29T10:20:03.527Z,998.20
2019-05-29T10:21:03.637Z,998.20
2019-05-29T10:22:04.506Z,998.22
2019-05-29T10:23:05.064Z,998.21
2019-05-29T10:24:04.197Z,998.21
2019-05-29T10:25:04.023Z,998.21
2019-05-29T10:26:05.042Z,998.20
2019-05-29T10:27:05.291Z,998.20
2019-05-29T10:28:06.086Z,998.19
2019-05-29T10:29:09.187Z,998.15
2019-05-29T10:30:04.505Z,998.17
2019-05-29T10:31:05.148Z,998.18
2019-05-29T10:32:04.704Z,998.20
2019-05-29T10:33:04.804Z,998.26
2019-05-29T10:34:04.901Z,998.24
2019-05-29T10:35:05.027Z,998.23
2019-05-29T10:36:05.097Z,998.27
2019-05-29T10:37:05.185Z,998.23
2019-05-29T10:38:05.284Z,998.23
2019-05-29T10:39:05.380Z,998.20
2019-05-29T10:40:05.482Z,998.23
2019-05-29T10:41:07.158Z,998.21
2019-05-29T10:42:05.674Z,998.17
2019-05-29T10:43:05.774Z,998.19
2019-05-29T10:44:05.870Z,998.16
2019-05-29T10:45:05.974Z,998.22
2019-05-29T10:46:06.079Z,998.23
2019-05-29T10:47:06.163Z,998.17
2019-05-29T10:48:06.282Z,998.21
2019-05-29T10:49:06.380Z,998.16
2019-05-29T10:50:06.477Z,998.20
2019-05-29T10:51:06.566Z,998.19
2019-05-29T10:52:15.635Z,998.15
2019-05-29T10:53:06.763Z,998.20
2019-05-29T10:54:06.878Z,998.16
2019-05-29T10:55:06.966Z,998.16
2019-05-29T10:56:07.051Z,998.15
2019-05-29T10:57:07.154Z,998.15
2019-05-29T10:58:07.251Z,998.14
2019-05-29T10:59:07.352Z,998.13
2019-05-29T11:00:07.450Z,998.15
2019-05-29T11:01:07.546Z,998.13
2019-05-29T11:02:07.644Z,998.07
2019-05-29T11:03:07.744Z,998.16
2019-05-29T11:04:07.840Z,998.20
2019-05-29T11:05:07.937Z,998.15
2019-05-29T11:06:08.041Z,998.16
2019-05-29T11:07:08.135Z,998.17
2019-05-29T11:08:08.233Z,998.16
2019-05-29T11:09:08.329Z,998.18
2019-05-29T11:10:08.429Z,998.14
2019-05-29T11:11:08.524Z,998.18
2019-05-29T11:12:08.622Z,998.17
2019-05-29T11:13:08.718Z,998.08
2019-05-29T11:14:08.822Z,998.04
2019-05-29T11:15:20.762Z,998.15
2019-05-29T11:16:09.032Z,998.10
2019-05-29T11:17:09.130Z,998.08
2019-05-29T11:18:09.232Z,998.13
2019-05-29T11:19:09.329Z,998.12
2019-05-29T11:20:09.430Z,998.14
2019-05-29T11:21:09.518Z,998.16
2019-05-29T11:22:25.277Z,998.17
2019-05-29T11:23:09.723Z,998.19
2019-05-29T11:24:09.811Z,998.13
2019-05-29T11:25:22.652Z,998.15
2019-05-29T11:26:10.005Z,998.11
2019-05-29T11:27:10.101Z,998.11
2019-05-29T11:28:10.198Z,998.13
2019-05-29T11:29:10.300Z,998.10
2019-05-29T11:30:10.390Z,998.08
2019-05-29T11:31:10.485Z,998.09
2019-05-29T11:32:10.741Z,998.08
2019-05-29T11:33:10.725Z,998.11
2019-05-29T11:34:10.821Z,998.09
2019-05-29T11:35:10.955Z,998.08
2019-05-29T11:36:13.635Z,998.08
2019-05-29T11:37:11.113Z,998.10
2019-05-29T11:38:11.288Z,998.11
2019-05-29T11:39:11.315Z,998.15
2019-05-29T11:40:11.407Z,998.13
2019-05-29T11:41:25.291Z,998.09
2019-05-29T11:42:26.223Z,998.13
2019-05-29T11:43:11.728Z,998.12
2019-05-29T11:44:11.826Z,998.12
2019-05-29T11:45:11.920Z,998.11
2019-05-29T11:46:12.017Z,998.15
2019-05-29T11:47:12.116Z,998.13
2019-05-29T11:48:12.232Z,998.18
2019-05-29T11:49:12.313Z,998.18
2019-05-29T11:50:19.190Z,998.16
2019-05-29T11:51:12.507Z,998.18
2019-05-29T11:52:23.659Z,998.19
2019-05-29T11:53:12.731Z,998.21
2019-05-29T11:54:12.810Z,998.18
2019-05-29T11:55:12.906Z,998.16
2019-05-29T11:56:12.990Z,998.16
2019-05-29T11:57:13.098Z,998.13
2019-05-29T11:58:29.967Z,998.12
2019-05-29T11:59:13.290Z,998.23
2019-05-29T12:00:19.826Z,998.17
2019-05-29T12:01:13.486Z,998.22
2019-05-29T12:02:13.581Z,998.17
2019-05-29T12:03:13.690Z,998.13
2019-05-29T12:04:25.808Z,998.14
2019-05-29T12:05:13.885Z,998.13
2019-05-29T12:06:14.143Z,998.10
2019-05-29T12:07:14.078Z,998.16
2019-05-29T12:08:14.181Z,998.17
2019-05-29T12:09:29.050Z,998.14
2019-05-29T12:10:14.528Z,998.13
2019-05-29T12:11:14.470Z,998.09
2019-05-29T12:12:14.563Z,998.12
2019-05-29T12:13:14.666Z,998.16
2019-05-29T12:14:14.759Z,998.24
2019-05-29T12:15:17.645Z,998.18
2019-05-29T12:16:14.956Z,998.08
2019-05-29T12:17:15.056Z,998.13
2019-05-29T12:18:23.473Z,998.15
2019-05-29T12:19:15.293Z,998.17
2019-05-29T12:20:29.253Z,998.16
2019-05-29T12:21:15.486Z,998.07
2019-05-29T12:22:15.593Z,998.14
2019-05-29T12:23:25.999Z,998.08
2019-05-29T12:24:15.789Z,998.14
2019-05-29T12:25:15.895Z,998.11
2019-05-29T12:26:22.374Z,998.16
2019-05-29T12:27:16.076Z,998.10
2019-05-29T12:28:16.174Z,998.09
2019-05-29T12:29:16.263Z,998.15